Maersk Tangier — 9V3786 — position and weather

sailwx.info

Track history (hours):
 
Tides and Currents Weather Stations Pressure Air Temp Water Temp Dewpoint Dewpoint Depression Visibility Wind Speed Wind Dir Waves Ship Positions

Maersk Tangier

Last reported at 2017-Sep-25 11:55 UTC. Time now 2017-Oct-18 02:35 UTC.
Position N 27°43' W 016°29'.
Warning: this ship's position is 22 days out of date.

Length 183 m; draft 11.9 m.

Type: Tanker. MMSI: 565036000.

Date/timePositionNaut miles runAvg speedWind from/ knotsBaromVisibWave heightAir tempDewpointWater temp
2017-Sep-25 11:55N 27°43' W 016°29'513.5
2017-Sep-25 11:30N 27°48' W 016°27'1113.9
2017-Sep-25 10:44N 27°58' W 016°21'413.5
2017-Sep-25 10:27N 28°01' W 016°19'613.6
2017-Sep-25 10:00N 28°06' W 016°15'713.5
2017-Sep-25 09:30N 28°11' W 016°10'713.5
2017-Sep-25 08:59N 28°16' W 016°05'613.6
2017-Sep-25 08:30N 28°21' W 015°60'713.3
2017-Sep-25 08:00N 28°26' W 015°55'713.1
2017-Sep-25 07:30N 28°31' W 015°50'713.0
2017-Sep-25 07:00N 28°36' W 015°46'612.9
2017-Sep-25 06:30N 28°42' W 015°42'713.1
2017-Sep-25 06:00N 28°48' W 015°38'713.1
2017-Sep-25 05:30N 28°53' W 015°35'713.2
2017-Sep-25 05:00N 28°59' W 015°31'713.2
2017-Sep-25 04:30N 29°05' W 015°28'713.0
2017-Sep-25 04:00N 29°11' W 015°24'712.8
2017-Sep-25 03:29N 29°17' W 015°22'612.6
2017-Sep-25 03:00N 29°23' W 015°20'612.7
2017-Sep-25 02:30N 29°30' W 015°19'612.9
2017-Sep-25 02:00N 29°36' W 015°17'613.2
2017-Sep-25 01:30N 29°42' W 015°15'713.2
2017-Sep-25 01:00N 29°48' W 015°13'713.1
2017-Sep-25 00:30N 29°55' W 015°11'713.1
2017-Sep-25 00:00N 30°01' W 015°09'713.2
2017-Sep-24 23:30N 30°07' W 015°07'713.2
2017-Sep-24 23:00N 30°14' W 015°05'713.1
2017-Sep-24 22:30N 30°20' W 015°03'713.5
2017-Sep-24 22:00N 30°27' W 015°01'813.6
2017-Sep-24 21:25N 30°34' W 014°59'613.3
2017-Sep-24 21:00N 30°40' W 014°58'613.0
2017-Sep-24 20:30N 30°46' W 014°55'713.2
2017-Sep-24 19:59N 30°52' W 014°53'613.2
2017-Sep-24 19:30N 30°59' W 014°52'713.1
2017-Sep-24 19:00N 31°05' W 014°49'713.3
2017-Sep-24 18:29N 31°12' W 014°47'613.5
2017-Sep-24 18:00N 31°18' W 014°45'713.4
2017-Sep-24 17:30N 31°24' W 014°43'713.3
2017-Sep-24 17:00N 31°31' W 014°41'713.2
2017-Sep-24 16:30N 31°37' W 014°39'713.3
2017-Sep-24 16:00N 31°44' W 014°38'713.5
2017-Sep-24 15:30N 31°50' W 014°36'713.7
2017-Sep-24 15:00N 31°57' W 014°33'713.7
2017-Sep-24 14:31N 32°03' W 014°31'713.6
2017-Sep-24 14:01N 32°10' W 014°29'713.5
2017-Sep-24 13:31N 32°16' W 014°27'713.3
2017-Sep-24 13:01N 32°23' W 014°24'713.3
2017-Sep-24 12:31N 32°29' W 014°22'713.3
2017-Sep-24 12:00N 32°36' W 014°20'713.5
2017-Sep-24 11:31N 32°42' W 014°18'713.2
2017-Sep-24 11:01N 32°48' W 014°16'713.0
2017-Sep-24 10:30N 32°55' W 014°14'613.0
2017-Sep-24 10:01N 33°01' W 014°12'713.0
2017-Sep-24 09:30N 33°07' W 014°10'613.0
2017-Sep-24 09:01N 33°13' W 014°08'612.8
2017-Sep-24 08:31N 33°20' W 014°06'612.4
2017-Sep-24 08:00N 33°26' W 014°05'712.7
2017-Sep-24 07:27N 33°33' W 014°02'612.9
2017-Sep-24 07:00N 33°38' W 014°01'612.7
2017-Sep-24 06:30N 33°44' W 013°59'612.7
2017-Sep-24 06:00N 33°50' W 013°57'612.7
2017-Sep-24 05:30N 33°57' W 013°55'612.8
2017-Sep-24 05:00N 34°03' W 013°53'612.9
2017-Sep-24 04:30N 34°09' W 013°51'612.7
2017-Sep-24 04:00N 34°15' W 013°49'612.8
2017-Sep-24 03:30N 34°21' W 013°47'813.0
2017-Sep-24 02:56N 34°29' W 013°45'613.0
2017-Sep-24 02:27N 34°35' W 013°42'613.0
2017-Sep-24 01:59N 34°40' W 013°40'613.0
2017-Sep-24 01:30N 34°46' W 013°38'613.0
2017-Sep-24 01:01N 34°52' W 013°36'713.0
2017-Sep-24 00:30N 34°59' W 013°34'612.9
2017-Sep-24 00:00N 35°05' W 013°32'612.7
2017-Sep-23 23:31N 35°11' W 013°30'612.7
2017-Sep-23 23:00N 35°17' W 013°28'612.9
2017-Sep-23 22:31N 35°24' W 013°26'713.0
2017-Sep-23 22:00N 35°30' W 013°24'613.0
2017-Sep-23 21:30N 35°36' W 013°22'612.8
2017-Sep-23 21:00N 35°42' W 013°20'612.6
2017-Sep-23 20:31N 35°48' W 013°18'713.1
2017-Sep-23 19:59N 35°55' W 013°15'  
2017-Sep-21 01:42N 48°53' W 005°50'810.7
2017-Sep-21 00:57N 48°58' W 005°40'511.7
2017-Sep-21 00:30N 49°00' W 005°33'5613.1
2017-Sep-20 20:15N 49°28' W 004°19'411.8
2017-Sep-20 19:57N 49°30' W 004°14'611.4
2017-Sep-20 19:26N 49°33' W 004°07'810.9
2017-Sep-20 18:43N 49°36' W 003°56'210.5
2017-Sep-20 18:30N 49°38' W 003°53'510.4
2017-Sep-20 18:00N 49°40' W 003°46'510.4
2017-Sep-20 17:30N 49°43' W 003°39'510.7
2017-Sep-20 17:00N 49°46' W 003°32'611.0
2017-Sep-20 16:30N 49°48' W 003°25'611.5
2017-Sep-20 16:00N 49°51' W 003°17'612.4
2017-Sep-20 15:30N 49°54' W 003°09'713.4
2017-Sep-20 15:00N 49°57' W 002°59'1514.5
2017-Sep-20 14:00N 50°02' W 002°38'1815.7
2017-Sep-20 12:53N 50°07' W 002°12'715.3
2017-Sep-20 12:27N 50°09' W 002°02'614.6
2017-Sep-20 12:00N 50°11' W 001°52'713.7
2017-Sep-20 11:30N 50°13' W 001°42'612.7
2017-Sep-20 11:01N 50°14' W 001°32'611.7
2017-Sep-20 10:30N 50°16' W 001°23'510.7
2017-Sep-20 10:01N 50°17' W 001°15'27 9.3
2017-Sep-20 07:07N 50°24' W 000°34'310.2
2017-Sep-20 06:49N 50°25' W 000°30'310.9
2017-Sep-20 06:30N 50°26' W 000°25'611.8
2017-Sep-20 06:00N 50°27' W 000°16'612.6
2017-Sep-20 05:30N 50°29' W 000°06'713.3
2017-Sep-20 05:00N 50°31' E 000°04'713.7
2017-Sep-20 04:30N 50°33' E 000°14'714.0
2017-Sep-20 04:01N 50°35' E 000°25'714.0
2017-Sep-20 03:30N 50°37' E 000°35'713.7
2017-Sep-20 03:00N 50°41' E 000°44'713.2
2017-Sep-20 02:30N 50°45' E 000°52'612.6
2017-Sep-20 02:00N 50°49' E 000°60'612.1
2017-Sep-20 01:30N 50°53' E 001°07'611.5
2017-Sep-20 01:00N 50°57' E 001°14'510.5
2017-Sep-20 00:30N 51°00' E 001°20'5 9.8
2017-Sep-20 00:00N 51°04' E 001°26'5 9.7
2017-Sep-19 23:30N 51°07' E 001°32'5 9.8
2017-Sep-19 23:00N 51°09' E 001°38'510.5
2017-Sep-19 22:30N 51°13' E 001°45'611.8
2017-Sep-19 22:00N 51°17' E 001°50'613.0
2017-Sep-19 21:30N 51°23' E 001°57'510.5
2017-Sep-19 21:00N 51°24' E 002°05'612.6
2017-Sep-19 20:30N 51°21' E 002°14'713.1
2017-Sep-19 20:00N 51°22' E 002°24'713.6
2017-Sep-19 19:28N 51°23' E 002°36'612.0
2017-Sep-19 18:58N 51°24' E 002°46'612.8
2017-Sep-19 18:30N 51°25' E 002°55'713.7
2017-Sep-19 18:01N 51°24' E 003°06'714.8
2017-Sep-19 17:31N 51°25' E 003°17'714.6
2017-Sep-19 17:01N 51°25' E 003°29'510.6
2017-Sep-19 16:30N 51°26' E 003°37'5 9.9
2017-Sep-19 16:00N 51°23' E 003°43'713.3
2017-Sep-19 15:30N 51°22' E 003°54'612.6
2017-Sep-19 15:00N 51°26' E 004°01'510.9
2017-Sep-19 14:30N 51°22' E 004°07'4 7.3
2017-Sep-19 14:00N 51°22' E 004°13'3 5.8
2017-Sep-19 13:31N 51°21' E 004°17'0 0.2
2017-Sep-19 13:01N 51°21' E 004°17'0 0.0
2017-Sep-19 12:31N 51°21' E 004°17'0 0.5
2017-Sep-19 12:01N 51°21' E 004°18'2 3.5
2017-Sep-19 11:31N 51°19' E 004°19'3 5.1
2017-Sep-19 11:01N 51°17' E 004°21'1 1.0
2017-Sep-19 10:26N 51°17' E 004°20'0 0.0
2017-Sep-19 09:56N 51°17' E 004°20'0 0.0
2017-Sep-19 09:26N 51°17' E 004°20'0 0.0
2017-Sep-19 08:44N 51°17' E 004°20'0 0.0
2017-Sep-19 08:20N 51°17' E 004°20'0 0.0
2017-Sep-19 07:53N 51°17' E 004°20'0 0.0
2017-Sep-19 07:23N 51°17' E 004°20'0 0.0
2017-Sep-19 06:56N 51°17' E 004°20'0 0.0
2017-Sep-19 06:17N 51°17' E 004°20'0 0.0
2017-Sep-19 05:56N 51°17' E 004°20'0 0.0
2017-Sep-19 05:29N 51°17' E 004°20'0 0.0
2017-Sep-19 04:53N 51°17' E 004°20'0 0.0
2017-Sep-19 04:29N 51°17' E 004°20'0 0.0
2017-Sep-19 03:59N 51°17' E 004°20'0 0.0
2017-Sep-19 03:29N 51°17' E 004°20'0 0.0
2017-Sep-19 02:56N 51°17' E 004°20'0 0.0
2017-Sep-19 02:29N 51°17' E 004°20'0 0.0
2017-Sep-19 01:53N 51°17' E 004°20'0 0.0
2017-Sep-19 01:20N 51°17' E 004°20'0 0.0
2017-Sep-19 00:20N 51°17' E 004°20'0 0.0
2017-Sep-18 23:56N 51°17' E 004°20'0 0.0
2017-Sep-18 23:20N 51°17' E 004°20'0 0.0
2017-Sep-18 22:56N 51°17' E 004°20'0 0.0
2017-Sep-18 22:29N 51°17' E 004°20'0 0.0
2017-Sep-18 21:59N 51°17' E 004°20'0 0.0
2017-Sep-18 21:26N 51°17' E 004°20'0 0.0
2017-Sep-18 20:32N 51°17' E 004°20'0 0.0
2017-Sep-18 20:23N 51°17' E 004°20'0 0.0
2017-Sep-18 19:56N 51°17' E 004°20'0 0.0
2017-Sep-18 19:26N 51°17' E 004°20'0 0.0
2017-Sep-18 18:47N 51°17' E 004°20'0 0.0
2017-Sep-18 18:20N 51°17' E 004°20'0 0.0
2017-Sep-18 17:53N 51°17' E 004°20'0 0.0
2017-Sep-18 17:26N 51°17' E 004°20'0 0.0
2017-Sep-18 16:59N 51°17' E 004°20'0 0.0
2017-Sep-18 16:26N 51°17' E 004°20'0 0.0
2017-Sep-18 15:53N 51°17' E 004°20'0 0.0
2017-Sep-18 15:26N 51°17' E 004°20'0 0.0
2017-Sep-18 14:53N 51°17' E 004°20'0 0.0
2017-Sep-18 14:23N 51°17' E 004°20'0 0.0
2017-Sep-18 13:56N 51°17' E 004°20'0 0.0
2017-Sep-18 13:23N 51°17' E 004°20'0 0.0
2017-Sep-18 12:44N 51°17' E 004°20'0 0.0
2017-Sep-18 12:20N 51°17' E 004°20'0 0.0
2017-Sep-18 11:50N 51°17' E 004°20'0 0.0
2017-Sep-18 11:29N 51°17' E 004°20'0 0.0
2017-Sep-18 10:50N 51°17' E 004°20'0 0.0
2017-Sep-18 10:26N 51°17' E 004°20'0 0.0
2017-Sep-18 09:56N 51°17' E 004°20'0 0.0
2017-Sep-18 09:23N 51°17' E 004°20'0 0.0
2017-Sep-18 08:59N 51°17' E 004°20'0 0.0
2017-Sep-18 08:23N 51°17' E 004°20'0 0.0
2017-Sep-18 07:59N 51°17' E 004°20'0 0.0
2017-Sep-18 07:26N 51°17' E 004°20'0 0.0
2017-Sep-18 06:56N 51°17' E 004°20'0 0.0
2017-Sep-18 06:26N 51°17' E 004°20'0 0.0
2017-Sep-18 05:59N 51°17' E 004°20'0 0.0
2017-Sep-18 05:29N 51°17' E 004°20'0 0.0
2017-Sep-18 04:59N 51°17' E 004°20'0 0.0
2017-Sep-18 04:26N 51°17' E 004°20'0 0.0
2017-Sep-18 03:44N 51°17' E 004°20'0 0.0
2017-Sep-18 03:17N 51°17' E 004°20'0 0.0
2017-Sep-18 02:56N 51°17' E 004°20'0 0.0
2017-Sep-18 02:26N 51°17' E 004°20'0 0.0
2017-Sep-18 01:56N 51°17' E 004°20'0 0.0
2017-Sep-18 01:26N 51°17' E 004°20'0 0.0
2017-Sep-18 00:59N 51°17' E 004°20'0 0.0
2017-Sep-18 00:26N 51°17' E 004°20'0 0.0
2017-Sep-17 23:56N 51°17' E 004°20'0 0.0
2017-Sep-17 23:26N 51°17' E 004°20'0 0.0
2017-Sep-17 22:50N 51°17' E 004°20'0 0.0
2017-Sep-17 22:29N 51°17' E 004°20'0 0.0
2017-Sep-17 21:59N 51°17' E 004°20'0 0.0
2017-Sep-17 21:23N 51°17' E 004°20'0 0.0
2017-Sep-17 20:56N 51°17' E 004°20'0 0.0
2017-Sep-17 20:20N 51°17' E 004°20'0 0.0
2017-Sep-17 19:59N 51°17' E 004°20'0 0.0
2017-Sep-17 19:26N 51°17' E 004°20'0 0.0
2017-Sep-17 18:56N 51°17' E 004°20'0 0.0
2017-Sep-17 18:26N 51°17' E 004°20'0 0.0
2017-Sep-17 17:56N 51°17' E 004°20'0 0.0
2017-Sep-17 17:14N 51°17' E 004°20'0 0.0
2017-Sep-17 16:59N 51°17' E 004°20'0 0.0
2017-Sep-17 16:02N 51°17' E 004°20'0 0.0
2017-Sep-17 15:44N 51°17' E 004°20'0 0.0
2017-Sep-17 15:26N 51°17' E 004°20'0 0.0
2017-Sep-17 14:56N 51°17' E 004°20'0 0.0
2017-Sep-17 14:02N 51°17' E 004°20'0 0.0
2017-Sep-17 13:50N 51°17' E 004°20'0 0.0
2017-Sep-17 13:20N 51°17' E 004°20'0 0.0
2017-Sep-17 12:56N 51°17' E 004°20'0 0.0
2017-Sep-17 12:20N 51°17' E 004°20'0 0.0
2017-Sep-17 11:51N 51°17' E 004°20'0 0.0
2017-Sep-17 11:30N 51°17' E 004°20'0 1.0
2017-Sep-17 11:00N 51°18' E 004°20'2 4.5
2017-Sep-17 10:30N 51°20' E 004°18'0 0.3
2017-Sep-17 09:45N 51°20' E 004°18'0 0.0
2017-Sep-17 09:21N 51°20' E 004°18'0 0.0
2017-Sep-17 08:54N 51°20' E 004°18'0 0.0
2017-Sep-17 08:27N 51°20' E 004°18'0 0.0
2017-Sep-17 07:57N 51°20' E 004°18'0 0.0
2017-Sep-17 07:30N 51°20' E 004°18'0 0.0
2017-Sep-17 06:54N 51°20' E 004°18'0 0.0
2017-Sep-17 06:24N 51°20' E 004°18'0 0.0
2017-Sep-17 06:00N 51°20' E 004°18'0 0.0
2017-Sep-17 05:18N 51°20' E 004°18'0 0.0
2017-Sep-17 05:00N 51°20' E 004°18'0 0.0
2017-Sep-17 04:24N 51°20' E 004°18'0 0.0
2017-Sep-17 04:00N 51°20' E 004°18'0 0.0
2017-Sep-17 03:24N 51°20' E 004°18'0 0.0
2017-Sep-17 02:27N 51°20' E 004°18'0 0.0
2017-Sep-17 02:00N 51°20' E 004°18'0 0.0
2017-Sep-17 01:27N 51°20' E 004°18'0 0.0
2017-Sep-17 01:00N 51°20' E 004°18'0 0.0
2017-Sep-17 00:09N 51°20' E 004°18'0 0.0
2017-Sep-16 23:54N 51°20' E 004°18'0 0.0
2017-Sep-16 23:30N 51°20' E 004°18'0 0.0
2017-Sep-16 22:45N 51°20' E 004°18'0 0.0
2017-Sep-16 22:21N 51°20' E 004°18'0 0.0
2017-Sep-16 22:00N 51°20' E 004°18'0 0.0
2017-Sep-16 21:27N 51°20' E 004°18'0 0.0
2017-Sep-16 20:54N 51°20' E 004°18'0 0.0
2017-Sep-16 20:27N 51°20' E 004°18'0 0.0
2017-Sep-16 19:57N 51°20' E 004°18'0 0.0
2017-Sep-16 19:30N 51°20' E 004°18'0 0.0
2017-Sep-16 18:48N 51°20' E 004°18'0 0.0
2017-Sep-16 18:30N 51°20' E 004°18'0 0.0
2017-Sep-16 17:51N 51°20' E 004°18'0 0.0
2017-Sep-16 17:21N 51°20' E 004°18'0 0.0
2017-Sep-16 16:54N 51°20' E 004°18'0 0.0
2017-Sep-16 16:27N 51°20' E 004°18'0 0.0
2017-Sep-16 15:57N 51°20' E 004°18'0 0.0
2017-Sep-16 15:30N 51°20' E 004°18'0 0.0
2017-Sep-16 14:57N 51°20' E 004°18'0 0.0
2017-Sep-16 14:30N 51°20' E 004°18'0 0.0
2017-Sep-16 13:57N 51°20' E 004°18'0 0.0
2017-Sep-16 13:30N 51°20' E 004°18'0 0.0
2017-Sep-16 12:57N 51°20' E 004°18'0 0.0
2017-Sep-16 12:30N 51°20' E 004°18'0 0.0
2017-Sep-16 11:57N 51°20' E 004°18'0 0.0
2017-Sep-16 11:30N 51°20' E 004°18'0 0.0
2017-Sep-16 10:45N 51°20' E 004°18'0 0.0
2017-Sep-16 10:30N 51°20' E 004°18'0 0.0
2017-Sep-16 10:00N 51°20' E 004°18'0 0.0
2017-Sep-16 09:24N 51°20' E 004°18'0 0.0
2017-Sep-16 09:00N 51°20' E 004°18'0 0.0
2017-Sep-16 08:30N 51°20' E 004°18'0 0.0
2017-Sep-16 08:00N 51°20' E 004°18'0 0.0
2017-Sep-16 07:30N 51°20' E 004°18'1 1.5
2017-Sep-16 07:00N 51°20' E 004°18'1 1.4
2017-Sep-16 06:30N 51°21' E 004°17'0 0.0
2017-Sep-16 06:00N 51°21' E 004°17'0 0.5
2017-Sep-16 05:31N 51°21' E 004°17'3 6.2
2017-Sep-16 05:00N 51°23' E 004°13'5 9.3
2017-Sep-16 04:30N 51°22' E 004°05'510.6
2017-Sep-16 04:00N 51°26' E 004°00'511.0
2017-Sep-16 03:30N 51°22' E 003°55'510.4
2017-Sep-16 03:00N 51°22' E 003°46'510.7
2017-Sep-16 02:30N 51°26' E 003°41'4 8.4
2017-Sep-16 02:00N 51°26' E 003°34'510.0
2017-Sep-16 01:30N 51°25' E 003°27'612.0
2017-Sep-16 01:00N 51°24' E 003°17'612.7
2017-Sep-16 00:30N 51°24' E 003°07'510.5
2017-Sep-16 00:00N 51°27' E 002°59'612.9
2017-Sep-15 23:30N 51°32' E 003°06'713.0
2017-Sep-15 23:00N 51°38' E 003°10'612.1
2017-Sep-15 22:30N 51°43' E 003°13'4 8.1
2017-Sep-15 22:00N 51°47' E 003°17'4 4.6
2017-Sep-15 21:10N 51°50' E 003°21'0 0.0
2017-Sep-15 20:55N 51°50' E 003°21'0 0.0
2017-Sep-15 20:25N 51°50' E 003°21'0 0.0
2017-Sep-15 17:04N 51°50' E 003°21'0 0.0
2017-Sep-15 12:37N 51°50' E 003°21'0 0.1
2017-Sep-15 12:10N 51°50' E 003°21'  
Track history (hours):
 
Tides and Currents Weather Stations Pressure Air Temp Water Temp Dewpoint Dewpoint Depression Visibility Wind Speed Wind Dir Waves Ship Positions

Maersk Tangier

Last reported at 2017-Sep-25 11:55 UTC. Time now 2017-Oct-18 02:35 UTC.
Position N 27°43' W 016°29'.
Warning: this ship's position is 22 days out of date.

Length 183 m; draft 11.9 m.

Type: Tanker. MMSI: 565036000.

Date/timePositionNaut miles runAvg speedWind from/ knotsBaromVisibWave heightAir tempDewpointWater temp
2017-Sep-25 11:55N 27°43' W 016°29'513.5
2017-Sep-25 11:30N 27°48' W 016°27'1113.9
2017-Sep-25 10:44N 27°58' W 016°21'413.5
2017-Sep-25 10:27N 28°01' W 016°19'613.6
2017-Sep-25 10:00N 28°06' W 016°15'713.5
2017-Sep-25 09:30N 28°11' W 016°10'713.5
2017-Sep-25 08:59N 28°16' W 016°05'613.6
2017-Sep-25 08:30N 28°21' W 015°60'713.3
2017-Sep-25 08:00N 28°26' W 015°55'713.1
2017-Sep-25 07:30N 28°31' W 015°50'713.0
2017-Sep-25 07:00N 28°36' W 015°46'612.9
2017-Sep-25 06:30N 28°42' W 015°42'713.1
2017-Sep-25 06:00N 28°48' W 015°38'713.1
2017-Sep-25 05:30N 28°53' W 015°35'713.2
2017-Sep-25 05:00N 28°59' W 015°31'713.2
2017-Sep-25 04:30N 29°05' W 015°28'713.0
2017-Sep-25 04:00N 29°11' W 015°24'712.8
2017-Sep-25 03:29N 29°17' W 015°22'612.6
2017-Sep-25 03:00N 29°23' W 015°20'612.7
2017-Sep-25 02:30N 29°30' W 015°19'612.9
2017-Sep-25 02:00N 29°36' W 015°17'613.2
2017-Sep-25 01:30N 29°42' W 015°15'713.2
2017-Sep-25 01:00N 29°48' W 015°13'713.1
2017-Sep-25 00:30N 29°55' W 015°11'713.1
2017-Sep-25 00:00N 30°01' W 015°09'713.2
2017-Sep-24 23:30N 30°07' W 015°07'713.2
2017-Sep-24 23:00N 30°14' W 015°05'713.1
2017-Sep-24 22:30N 30°20' W 015°03'713.5
2017-Sep-24 22:00N 30°27' W 015°01'813.6
2017-Sep-24 21:25N 30°34' W 014°59'613.3
2017-Sep-24 21:00N 30°40' W 014°58'613.0
2017-Sep-24 20:30N 30°46' W 014°55'713.2
2017-Sep-24 19:59N 30°52' W 014°53'613.2
2017-Sep-24 19:30N 30°59' W 014°52'713.1
2017-Sep-24 19:00N 31°05' W 014°49'713.3
2017-Sep-24 18:29N 31°12' W 014°47'613.5
2017-Sep-24 18:00N 31°18' W 014°45'713.4
2017-Sep-24 17:30N 31°24' W 014°43'713.3
2017-Sep-24 17:00N 31°31' W 014°41'713.2
2017-Sep-24 16:30N 31°37' W 014°39'713.3
2017-Sep-24 16:00N 31°44' W 014°38'713.5
2017-Sep-24 15:30N 31°50' W 014°36'713.7
2017-Sep-24 15:00N 31°57' W 014°33'713.7
2017-Sep-24 14:31N 32°03' W 014°31'713.6
2017-Sep-24 14:01N 32°10' W 014°29'713.5
2017-Sep-24 13:31N 32°16' W 014°27'713.3
2017-Sep-24 13:01N 32°23' W 014°24'713.3
2017-Sep-24 12:31N 32°29' W 014°22'713.3
2017-Sep-24 12:00N 32°36' W 014°20'713.5
2017-Sep-24 11:31N 32°42' W 014°18'713.2
2017-Sep-24 11:01N 32°48' W 014°16'713.0
2017-Sep-24 10:30N 32°55' W 014°14'613.0
2017-Sep-24 10:01N 33°01' W 014°12'713.0
2017-Sep-24 09:30N 33°07' W 014°10'613.0
2017-Sep-24 09:01N 33°13' W 014°08'612.8
2017-Sep-24 08:31N 33°20' W 014°06'612.4
2017-Sep-24 08:00N 33°26' W 014°05'712.7
2017-Sep-24 07:27N 33°33' W 014°02'612.9
2017-Sep-24 07:00N 33°38' W 014°01'612.7
2017-Sep-24 06:30N 33°44' W 013°59'612.7
2017-Sep-24 06:00N 33°50' W 013°57'612.7
2017-Sep-24 05:30N 33°57' W 013°55'612.8
2017-Sep-24 05:00N 34°03' W 013°53'612.9
2017-Sep-24 04:30N 34°09' W 013°51'612.7
2017-Sep-24 04:00N 34°15' W 013°49'612.8
2017-Sep-24 03:30N 34°21' W 013°47'813.0
2017-Sep-24 02:56N 34°29' W 013°45'613.0
2017-Sep-24 02:27N 34°35' W 013°42'613.0
2017-Sep-24 01:59N 34°40' W 013°40'613.0
2017-Sep-24 01:30N 34°46' W 013°38'613.0
2017-Sep-24 01:01N 34°52' W 013°36'713.0
2017-Sep-24 00:30N 34°59' W 013°34'612.9
2017-Sep-24 00:00N 35°05' W 013°32'612.7
2017-Sep-23 23:31N 35°11' W 013°30'612.7
2017-Sep-23 23:00N 35°17' W 013°28'612.9
2017-Sep-23 22:31N 35°24' W 013°26'713.0
2017-Sep-23 22:00N 35°30' W 013°24'613.0
2017-Sep-23 21:30N 35°36' W 013°22'612.8
2017-Sep-23 21:00N 35°42' W 013°20'612.6
2017-Sep-23 20:31N 35°48' W 013°18'713.1
2017-Sep-23 19:59N 35°55' W 013°15'  
2017-Sep-21 01:42N 48°53' W 005°50'810.7
2017-Sep-21 00:57N 48°58' W 005°40'511.7
2017-Sep-21 00:30N 49°00' W 005°33'5613.1
2017-Sep-20 20:15N 49°28' W 004°19'411.8
2017-Sep-20 19:57N 49°30' W 004°14'611.4
2017-Sep-20 19:26N 49°33' W 004°07'810.9
2017-Sep-20 18:43N 49°36' W 003°56'210.5
2017-Sep-20 18:30N 49°38' W 003°53'510.4
2017-Sep-20 18:00N 49°40' W 003°46'510.4
2017-Sep-20 17:30N 49°43' W 003°39'510.7
2017-Sep-20 17:00N 49°46' W 003°32'611.0
2017-Sep-20 16:30N 49°48' W 003°25'611.5
2017-Sep-20 16:00N 49°51' W 003°17'612.4
2017-Sep-20 15:30N 49°54' W 003°09'713.4
2017-Sep-20 15:00N 49°57' W 002°59'1514.5
2017-Sep-20 14:00N 50°02' W 002°38'1815.7
2017-Sep-20 12:53N 50°07' W 002°12'715.3
2017-Sep-20 12:27N 50°09' W 002°02'614.6
2017-Sep-20 12:00N 50°11' W 001°52'713.7
2017-Sep-20 11:30N 50°13' W 001°42'612.7
2017-Sep-20 11:01N 50°14' W 001°32'611.7
2017-Sep-20 10:30N 50°16' W 001°23'510.7
2017-Sep-20 10:01N 50°17' W 001°15'27 9.3
2017-Sep-20 07:07N 50°24' W 000°34'310.2
2017-Sep-20 06:49N 50°25' W 000°30'310.9
2017-Sep-20 06:30N 50°26' W 000°25'611.8
2017-Sep-20 06:00N 50°27' W 000°16'612.6
2017-Sep-20 05:30N 50°29' W 000°06'713.3
2017-Sep-20 05:00N 50°31' E 000°04'713.7
2017-Sep-20 04:30N 50°33' E 000°14'714.0
2017-Sep-20 04:01N 50°35' E 000°25'714.0
2017-Sep-20 03:30N 50°37' E 000°35'713.7
2017-Sep-20 03:00N 50°41' E 000°44'713.2
2017-Sep-20 02:30N 50°45' E 000°52'612.6
2017-Sep-20 02:00N 50°49' E 000°60'612.1
2017-Sep-20 01:30N 50°53' E 001°07'611.5
2017-Sep-20 01:00N 50°57' E 001°14'510.5
2017-Sep-20 00:30N 51°00' E 001°20'5 9.8
2017-Sep-20 00:00N 51°04' E 001°26'5 9.7
2017-Sep-19 23:30N 51°07' E 001°32'5 9.8
2017-Sep-19 23:00N 51°09' E 001°38'510.5
2017-Sep-19 22:30N 51°13' E 001°45'611.8
2017-Sep-19 22:00N 51°17' E 001°50'613.0
2017-Sep-19 21:30N 51°23' E 001°57'510.5
2017-Sep-19 21:00N 51°24' E 002°05'612.6
2017-Sep-19 20:30N 51°21' E 002°14'713.1
2017-Sep-19 20:00N 51°22' E 002°24'713.6
2017-Sep-19 19:28N 51°23' E 002°36'612.0
2017-Sep-19 18:58N 51°24' E 002°46'612.8
2017-Sep-19 18:30N 51°25' E 002°55'713.7
2017-Sep-19 18:01N 51°24' E 003°06'714.8
2017-Sep-19 17:31N 51°25' E 003°17'714.6
2017-Sep-19 17:01N 51°25' E 003°29'510.6
2017-Sep-19 16:30N 51°26' E 003°37'5 9.9
2017-Sep-19 16:00N 51°23' E 003°43'713.3
2017-Sep-19 15:30N 51°22' E 003°54'612.6
2017-Sep-19 15:00N 51°26' E 004°01'510.9
2017-Sep-19 14:30N 51°22' E 004°07'4 7.3
2017-Sep-19 14:00N 51°22' E 004°13'3 5.8
2017-Sep-19 13:31N 51°21' E 004°17'0 0.2
2017-Sep-19 13:01N 51°21' E 004°17'0 0.0
2017-Sep-19 12:31N 51°21' E 004°17'0 0.5
2017-Sep-19 12:01N 51°21' E 004°18'2 3.5
2017-Sep-19 11:31N 51°19' E 004°19'3 5.1
2017-Sep-19 11:01N 51°17' E 004°21'1 1.0
2017-Sep-19 10:26N 51°17' E 004°20'0 0.0
2017-Sep-19 09:56N 51°17' E 004°20'0 0.0
2017-Sep-19 09:26N 51°17' E 004°20'0 0.0
2017-Sep-19 08:44N 51°17' E 004°20'0 0.0
2017-Sep-19 08:20N 51°17' E 004°20'0 0.0
2017-Sep-19 07:53N 51°17' E 004°20'0 0.0
2017-Sep-19 07:23N 51°17' E 004°20'0 0.0
2017-Sep-19 06:56N 51°17' E 004°20'0 0.0
2017-Sep-19 06:17N 51°17' E 004°20'0 0.0
2017-Sep-19 05:56N 51°17' E 004°20'0 0.0
2017-Sep-19 05:29N 51°17' E 004°20'0 0.0
2017-Sep-19 04:53N 51°17' E 004°20'0 0.0
2017-Sep-19 04:29N 51°17' E 004°20'0 0.0
2017-Sep-19 03:59N 51°17' E 004°20'0 0.0
2017-Sep-19 03:29N 51°17' E 004°20'0 0.0
2017-Sep-19 02:56N 51°17' E 004°20'0 0.0
2017-Sep-19 02:29N 51°17' E 004°20'0 0.0
2017-Sep-19 01:53N 51°17' E 004°20'0 0.0
2017-Sep-19 01:20N 51°17' E 004°20'0 0.0
2017-Sep-19 00:20N 51°17' E 004°20'0 0.0
2017-Sep-18 23:56N 51°17' E 004°20'0 0.0
2017-Sep-18 23:20N 51°17' E 004°20'0 0.0
2017-Sep-18 22:56N 51°17' E 004°20'0 0.0
2017-Sep-18 22:29N 51°17' E 004°20'0 0.0
2017-Sep-18 21:59N 51°17' E 004°20'0 0.0
2017-Sep-18 21:26N 51°17' E 004°20'0 0.0
2017-Sep-18 20:32N 51°17' E 004°20'0 0.0
2017-Sep-18 20:23N 51°17' E 004°20'0 0.0
2017-Sep-18 19:56N 51°17' E 004°20'0 0.0
2017-Sep-18 19:26N 51°17' E 004°20'0 0.0
2017-Sep-18 18:47N 51°17' E 004°20'0 0.0
2017-Sep-18 18:20N 51°17' E 004°20'0 0.0
2017-Sep-18 17:53N 51°17' E 004°20'0 0.0
2017-Sep-18 17:26N 51°17' E 004°20'0 0.0
2017-Sep-18 16:59N 51°17' E 004°20'0 0.0
2017-Sep-18 16:26N 51°17' E 004°20'0 0.0
2017-Sep-18 15:53N 51°17' E 004°20'0 0.0
2017-Sep-18 15:26N 51°17' E 004°20'0 0.0
2017-Sep-18 14:53N 51°17' E 004°20'0 0.0
2017-Sep-18 14:23N 51°17' E 004°20'0 0.0
2017-Sep-18 13:56N 51°17' E 004°20'0 0.0
2017-Sep-18 13:23N 51°17' E 004°20'0 0.0
2017-Sep-18 12:44N 51°17' E 004°20'0 0.0
2017-Sep-18 12:20N 51°17' E 004°20'0 0.0
2017-Sep-18 11:50N 51°17' E 004°20'0 0.0
2017-Sep-18 11:29N 51°17' E 004°20'0 0.0
2017-Sep-18 10:50N 51°17' E 004°20'0 0.0
2017-Sep-18 10:26N 51°17' E 004°20'0 0.0
2017-Sep-18 09:56N 51°17' E 004°20'0 0.0
2017-Sep-18 09:23N 51°17' E 004°20'0 0.0
2017-Sep-18 08:59N 51°17' E 004°20'0 0.0
2017-Sep-18 08:23N 51°17' E 004°20'0 0.0
2017-Sep-18 07:59N 51°17' E 004°20'0 0.0
2017-Sep-18 07:26N 51°17' E 004°20'0 0.0
2017-Sep-18 06:56N 51°17' E 004°20'0 0.0
2017-Sep-18 06:26N 51°17' E 004°20'0 0.0
2017-Sep-18 05:59N 51°17' E 004°20'0 0.0
2017-Sep-18 05:29N 51°17' E 004°20'0 0.0
2017-Sep-18 04:59N 51°17' E 004°20'0 0.0
2017-Sep-18 04:26N 51°17' E 004°20'0 0.0
2017-Sep-18 03:44N 51°17' E 004°20'0 0.0
2017-Sep-18 03:17N 51°17' E 004°20'0 0.0
2017-Sep-18 02:56N 51°17' E 004°20'0 0.0
2017-Sep-18 02:26N 51°17' E 004°20'0 0.0
2017-Sep-18 01:56N 51°17' E 004°20'0 0.0
2017-Sep-18 01:26N 51°17' E 004°20'0 0.0
2017-Sep-18 00:59N 51°17' E 004°20'0 0.0
2017-Sep-18 00:26N 51°17' E 004°20'0 0.0
2017-Sep-17 23:56N 51°17' E 004°20'0 0.0
2017-Sep-17 23:26N 51°17' E 004°20'0 0.0
2017-Sep-17 22:50N 51°17' E 004°20'0 0.0
2017-Sep-17 22:29N 51°17' E 004°20'0 0.0
2017-Sep-17 21:59N 51°17' E 004°20'0 0.0
2017-Sep-17 21:23N 51°17' E 004°20'0 0.0
2017-Sep-17 20:56N 51°17' E 004°20'0 0.0
2017-Sep-17 20:20N 51°17' E 004°20'0 0.0
2017-Sep-17 19:59N 51°17' E 004°20'0 0.0
2017-Sep-17 19:26N 51°17' E 004°20'0 0.0
2017-Sep-17 18:56N 51°17' E 004°20'0 0.0
2017-Sep-17 18:26N 51°17' E 004°20'0 0.0
2017-Sep-17 17:56N 51°17' E 004°20'0 0.0
2017-Sep-17 17:14N 51°17' E 004°20'0 0.0
2017-Sep-17 16:59N 51°17' E 004°20'0 0.0
2017-Sep-17 16:02N 51°17' E 004°20'0 0.0
2017-Sep-17 15:44N 51°17' E 004°20'0 0.0
2017-Sep-17 15:26N 51°17' E 004°20'0 0.0
2017-Sep-17 14:56N 51°17' E 004°20'0 0.0
2017-Sep-17 14:02N 51°17' E 004°20'0 0.0
2017-Sep-17 13:50N 51°17' E 004°20'0 0.0
2017-Sep-17 13:20N 51°17' E 004°20'0 0.0
2017-Sep-17 12:56N 51°17' E 004°20'0 0.0
2017-Sep-17 12:20N 51°17' E 004°20'0 0.0
2017-Sep-17 11:51N 51°17' E 004°20'0 0.0
2017-Sep-17 11:30N 51°17' E 004°20'0 1.0
2017-Sep-17 11:00N 51°18' E 004°20'2 4.5
2017-Sep-17 10:30N 51°20' E 004°18'0 0.3
2017-Sep-17 09:45N 51°20' E 004°18'0 0.0
2017-Sep-17 09:21N 51°20' E 004°18'0 0.0
2017-Sep-17 08:54N 51°20' E 004°18'0 0.0
2017-Sep-17 08:27N 51°20' E 004°18'0 0.0
2017-Sep-17 07:57N 51°20' E 004°18'0 0.0
2017-Sep-17 07:30N 51°20' E 004°18'0 0.0
2017-Sep-17 06:54N 51°20' E 004°18'0 0.0
2017-Sep-17 06:24N 51°20' E 004°18'0 0.0
2017-Sep-17 06:00N 51°20' E 004°18'0 0.0
2017-Sep-17 05:18N 51°20' E 004°18'0 0.0
2017-Sep-17 05:00N 51°20' E 004°18'0 0.0
2017-Sep-17 04:24N 51°20' E 004°18'0 0.0
2017-Sep-17 04:00N 51°20' E 004°18'0 0.0
2017-Sep-17 03:24N 51°20' E 004°18'0 0.0
2017-Sep-17 02:27N 51°20' E 004°18'0 0.0
2017-Sep-17 02:00N 51°20' E 004°18'0 0.0
2017-Sep-17 01:27N 51°20' E 004°18'0 0.0
2017-Sep-17 01:00N 51°20' E 004°18'0 0.0
2017-Sep-17 00:09N 51°20' E 004°18'0 0.0
2017-Sep-16 23:54N 51°20' E 004°18'0 0.0
2017-Sep-16 23:30N 51°20' E 004°18'0 0.0
2017-Sep-16 22:45N 51°20' E 004°18'0 0.0
2017-Sep-16 22:21N 51°20' E 004°18'0 0.0
2017-Sep-16 22:00N 51°20' E 004°18'0 0.0
2017-Sep-16 21:27N 51°20' E 004°18'0 0.0
2017-Sep-16 20:54N 51°20' E 004°18'0 0.0
2017-Sep-16 20:27N 51°20' E 004°18'0 0.0
2017-Sep-16 19:57N 51°20' E 004°18'0 0.0
2017-Sep-16 19:30N 51°20' E 004°18'0 0.0
2017-Sep-16 18:48N 51°20' E 004°18'0 0.0
2017-Sep-16 18:30N 51°20' E 004°18'0 0.0
2017-Sep-16 17:51N 51°20' E 004°18'0 0.0
2017-Sep-16 17:21N 51°20' E 004°18'0 0.0
2017-Sep-16 16:54N 51°20' E 004°18'0 0.0
2017-Sep-16 16:27N 51°20' E 004°18'0 0.0
2017-Sep-16 15:57N 51°20' E 004°18'0 0.0
2017-Sep-16 15:30N 51°20' E 004°18'0 0.0
2017-Sep-16 14:57N 51°20' E 004°18'0 0.0
2017-Sep-16 14:30N 51°20' E 004°18'0 0.0
2017-Sep-16 13:57N 51°20' E 004°18'0 0.0
2017-Sep-16 13:30N 51°20' E 004°18'0 0.0
2017-Sep-16 12:57N 51°20' E 004°18'0 0.0
2017-Sep-16 12:30N 51°20' E 004°18'0 0.0
2017-Sep-16 11:57N 51°20' E 004°18'0 0.0
2017-Sep-16 11:30N 51°20' E 004°18'0 0.0
2017-Sep-16 10:45N 51°20' E 004°18'0 0.0
2017-Sep-16 10:30N 51°20' E 004°18'0 0.0
2017-Sep-16 10:00N 51°20' E 004°18'0 0.0
2017-Sep-16 09:24N 51°20' E 004°18'0 0.0
2017-Sep-16 09:00N 51°20' E 004°18'0 0.0
2017-Sep-16 08:30N 51°20' E 004°18'0 0.0
2017-Sep-16 08:00N 51°20' E 004°18'0 0.0
2017-Sep-16 07:30N 51°20' E 004°18'1 1.5
2017-Sep-16 07:00N 51°20' E 004°18'1 1.4
2017-Sep-16 06:30N 51°21' E 004°17'0 0.0
2017-Sep-16 06:00N 51°21' E 004°17'0 0.5
2017-Sep-16 05:31N 51°21' E 004°17'3 6.2
2017-Sep-16 05:00N 51°23' E 004°13'5 9.3
2017-Sep-16 04:30N 51°22' E 004°05'510.6
2017-Sep-16 04:00N 51°26' E 004°00'511.0
2017-Sep-16 03:30N 51°22' E 003°55'510.4
2017-Sep-16 03:00N 51°22' E 003°46'510.7
2017-Sep-16 02:30N 51°26' E 003°41'4 8.4
2017-Sep-16 02:00N 51°26' E 003°34'510.0
2017-Sep-16 01:30N 51°25' E 003°27'612.0
2017-Sep-16 01:00N 51°24' E 003°17'612.7
2017-Sep-16 00:30N 51°24' E 003°07'510.5
2017-Sep-16 00:00N 51°27' E 002°59'612.9
2017-Sep-15 23:30N 51°32' E 003°06'713.0
2017-Sep-15 23:00N 51°38' E 003°10'612.1
2017-Sep-15 22:30N 51°43' E 003°13'4 8.1
2017-Sep-15 22:00N 51°47' E 003°17'4 4.6
2017-Sep-15 21:10N 51°50' E 003°21'0 0.0
2017-Sep-15 20:55N 51°50' E 003°21'0 0.0
2017-Sep-15 20:25N 51°50' E 003°21'0 0.0
2017-Sep-15 17:04N 51°50' E 003°21'0 0.0
2017-Sep-15 12:37N 51°50' E 003°21'0 0.1
2017-Sep-15 12:10N 51°50' E 003°21'  

Dump ship's entire track history